首页
METAR-TAF:

METAR-TAF

机场 :

门罗, 路易斯安那州, 美国

纬度: 32-30-42N, 经度: 092-01-53W, 海拔: 24米

当前天气观测

该预报发布于32分钟前的14:53 UTC
风速12节,风向东北
温度 10°C
湿度 93%
气压 1014 hPa
能見度: 12.9公里
多云层高于600英尺
阴天层高于2000英尺

METAR: KMLU 291453Z 05012KT 8SM BKN006 OVC020 10/09 A2994 RMK AO2 RAE42 SLP136 P0000 60006 T01000089 51023

时间: 09:25 (15:25 UTC)

预报

该预报发布于1小时和30分钟前的13:55 UTC
预报有效从29日的 14点(UTC)到 30日的 12点(UTC)
风速6节,风向东北
能見度: 6.4公里
阴天层高于400英尺
雨, 轻雾
从 29日的 1500点(UTC)
风速7节,风向北转东北
能見度: 10公里
阴天层高于2000英尺
从 30日的 0000点(UTC)
风速6节,风向
能見度: 10公里
阴天层高于1500英尺
从 30日的 0600点(UTC)
风速4节,风向北转东北
能見度: 6.4公里
阴天层高于1000英尺
轻雾

TAF: KMLU 291355Z 2914/3012 04006KT 4SM RA BR OVC004 FM291500 03007KT P6SM OVC020 FM300000 01006KT P6SM OVC015 FM300600 02004KT 4SM BR OVC010

超过4000个机场的气象观测和天气预报(METAR&TAF报告)。

可查询的气象台以黄色和红色小点在地图上表示。

将鼠标移到小点上方,可查看气象台名称。

然后点击查看天气观测和预报。

如需切换地图:点击带黑十字的绿色按钮放大地图;点击带横线的绿色按钮缩小地图;或者点击绿色箭头查看邻近地区的地图。


METAR-TAF: